Time;durP1;ratioP1;P1;durP2;ratioP2;P2;SDS_P1;SDS_P2;PMS_P1;PMS_P2;Temp;Humidity;BMP_temperature;BMP_pressure;BME280_temperature;BME280_humidity;BME280_pressure;Samples;Min_cycle;Max_cycle;Signal;HPM_P1;HPM_P2
2022/03/13 00:02:13;;;;;;;38.03;20.45;;;;;;;0.38;38.20;100574.16;4965487;28;20031;-83
2022/03/13 00:04:38;;;;;;;38.90;21.35;;;;;;;0.38;38.23;100584.41;4965717;28;20027;-83
2022/03/13 00:07:16;;;;;;;34.72;19.13;;;;;;;0.39;38.58;100592.13;4965322;28;20032;-83
2022/03/13 00:09:44;;;;;;;34.85;19.05;;;;;;;0.35;38.34;100579.28;4965473;28;20059;-84
2022/03/13 00:12:14;;;;;;;34.58;19.40;;;;;;;0.40;38.28;100591.28;4964935;28;20056;-84
2022/03/13 00:14:42;;;;;;;43.42;22.30;;;;;;;0.37;38.20;100580.13;4965486;28;20034;-84
2022/03/13 00:17:08;;;;;;;39.53;22.23;;;;;;;0.28;38.51;100568.09;4933356;29;20035;-85
2022/03/13 00:19:34;;;;;;;108.80;53.53;;;;;;;0.39;38.39;100591.28;4965568;28;20052;-84
2022/03/13 00:21:59;;;;;;;113.60;43.33;;;;;;;0.28;38.68;100573.22;4933161;29;20063;-83
2022/03/13 00:24:25;;;;;;;55.70;24.17;;;;;;;0.34;38.45;100577.53;4965268;28;20023;-83
2022/03/13 00:26:54;;;;;;;45.67;21.08;;;;;;;0.18;38.69;100559.47;4933492;29;20126;-83
2022/03/13 00:29:20;;;;;;;43.33;22.40;;;;;;;0.27;38.48;100576.63;4965243;28;20068;-83
2022/03/13 00:31:46;;;;;;;36.28;19.63;;;;;;;0.29;38.67;100574.06;4965440;28;20126;-83
2022/03/13 00:34:11;;;;;;;41.78;19.63;;;;;;;0.26;39.11;100574.06;4964989;28;20028;-84
2022/03/13 00:36:37;;;;;;;42.28;21.05;;;;;;;0.20;38.61;100575.69;4965220;28;20031;-83
2022/03/13 00:39:03;;;;;;;36.60;19.60;;;;;;;0.23;38.46;100570.63;4934374;29;20038;-83
2022/03/13 00:41:28;;;;;;;35.47;19.65;;;;;;;0.20;38.38;100585.09;4965287;28;20118;-84
2022/03/13 00:43:54;;;;;;;29.77;16.60;;;;;;;0.07;38.94;100566.19;4965395;28;20054;-83
2022/03/13 00:46:20;;;;;;;30.42;16.02;;;;;;;0.14;38.99;100575.66;4965252;28;20138;-83
2022/03/13 00:48:46;;;;;;;33.35;17.88;;;;;;;0.13;39.10;100581.63;4972597;28;20530;-84
2022/03/13 00:51:11;;;;;;;39.55;20.27;;;;;;;0.13;38.87;100579.06;4973794;28;20042;-84
2022/03/13 00:53:38;;;;;;;36.67;18.05;;;;;;;0.10;39.62;100576.47;4973854;28;20039;-84
2022/03/13 00:56:04;;;;;;;33.28;19.13;;;;;;;-0.03;39.14;100549.88;4957497;28;20030;-84
2022/03/13 00:58:29;;;;;;;32.90;19.10;;;;;;;0.06;39.09;100567.03;4957748;28;20050;-84
2022/03/13 01:00:55;;;;;;;40.22;20.88;;;;;;;0.03;39.61;100566.13;4957803;28;20030;-84
2022/03/13 01:03:35;;;;;;;35.58;16.90;;;;;;;0.05;39.59;100579.81;4973462;28;20129;-84
2022/03/13 01:06:01;;;;;;;29.73;15.32;;;;;;;-0.10;39.51;100553.19;4957376;28;20050;-83
2022/03/13 01:08:27;;;;;;;30.90;17.08;;;;;;;-0.05;39.58;100563.47;4957520;28;20062;-83
2022/03/13 01:10:53;;;;;;;35.65;16.83;;;;;;;-0.02;39.73;100568.66;4973425;28;20034;-84
2022/03/13 01:13:21;;;;;;;30.38;15.65;;;;;;;-0.05;39.42;100556.66;4957346;28;20121;-83
2022/03/13 01:15:48;;;;;;;31.00;16.60;;;;;;;-0.04;39.80;100570.34;4957535;28;20510;-84
2022/03/13 01:18:13;;;;;;;31.17;15.55;;;;;;;-0.11;40.01;100553.19;4957132;28;20039;-84
2022/03/13 01:20:39;;;;;;;33.90;18.80;;;;;;;-0.13;40.01;100554.84;4923169;28;20465;-84
2022/03/13 01:23:04;;;;;;;31.08;15.48;;;;;;;-0.12;39.79;100557.44;4900125;29;20040;-84
2022/03/13 01:25:30;;;;;;;32.47;16.30;;;;;;;-0.17;40.04;100555.66;4916039;29;20040;-83
2022/03/13 01:27:55;;;;;;;35.60;17.55;;;;;;;-0.19;40.01;100558.22;4916293;29;20032;-83
2022/03/13 01:30:20;;;;;;;34.63;17.75;;;;;;;-0.22;40.32;100550.50;4915698;28;20036;-83
2022/03/13 01:32:52;;;;;;;45.80;22.30;;;;;;;-0.28;39.98;100548.72;4915885;29;20031;-83
2022/03/13 01:35:23;;;;;;;39.28;19.00;;;;;;;-0.26;40.51;100554.72;4933765;29;20051;-83
2022/03/13 01:37:49;;;;;;;38.65;19.45;;;;;;;-0.40;40.14;100533.22;4968301;28;20369;-83
2022/03/13 01:40:21;;;;;;;43.03;21.88;;;;;;;-0.26;40.59;100557.25;4967912;28;20032;-83
2022/03/13 01:42:48;;;;;;;39.60;20.23;;;;;;;-0.32;40.84;100546.97;4973068;28;20038;-84
2022/03/13 01:45:17;;;;;;;41.58;20.88;;;;;;;-0.30;40.78;100554.66;4972839;28;20511;-84
2022/03/13 01:47:43;;;;;;;36.03;19.90;;;;;;;-0.35;40.82;100544.38;4972913;28;20446;-84
2022/03/13 01:50:10;;;;;;;36.88;19.90;;;;;;;-0.44;40.78;100536.59;4972794;28;20122;-84
2022/03/13 01:52:38;;;;;;;44.35;23.30;;;;;;;-0.40;40.99;100538.34;4972799;28;20050;-84
2022/03/13 01:55:05;;;;;;;42.97;21.42;;;;;;;-0.41;40.97;100539.19;4972581;28;20573;-83
2022/03/13 01:57:32;;;;;;;39.88;20.17;;;;;;;-0.43;41.08;100540.00;4956659;28;20077;-83
2022/03/13 02:00:00;;;;;;;37.92;20.23;;;;;;;-0.48;41.73;100532.25;4971955;28;20130;-84
2022/03/13 02:02:29;;;;;;;42.92;22.10;;;;;;;-0.52;41.77;100533.06;4972470;28;20074;-83
2022/03/13 02:04:56;;;;;;;40.60;21.75;;;;;;;-0.55;41.92;100533.03;4956583;28;20483;-82
2022/03/13 02:07:25;;;;;;;38.33;20.27;;;;;;;-0.54;41.94;100538.19;4956353;28;20133;-83
2022/03/13 02:09:51;;;;;;;44.05;24.45;;;;;;;-0.60;41.97;100537.22;4972662;28;20038;-82
2022/03/13 02:12:19;;;;;;;58.03;26.63;;;;;;;-0.63;41.97;100534.63;4972132;28;20050;-83
2022/03/13 02:14:45;;;;;;;44.92;21.75;;;;;;;-0.61;42.59;100540.63;4936704;29;20070;-83
2022/03/13 02:17:11;;;;;;;41.35;20.60;;;;;;;-0.66;42.76;100539.72;4967359;28;20574;-86
2022/03/13 02:19:36;;;;;;;35.63;18.98;;;;;;;-0.71;42.68;100528.56;4953111;28;20039;-83
2022/03/13 02:22:02;;;;;;;39.47;19.25;;;;;;;-0.71;43.30;100536.25;4937162;29;20047;-84
2022/03/13 02:24:28;;;;;;;39.03;18.45;;;;;;;-0.76;43.50;100524.25;4936837;29;20447;-83
2022/03/13 02:26:58;;;;;;;35.05;18.85;;;;;;;-0.76;43.35;100528.47;4953141;28;20035;-83
2022/03/13 02:29:23;;;;;;;30.27;17.90;;;;;;;-0.91;43.82;100511.25;4952640;28;20039;-84
2022/03/13 02:31:49;;;;;;;35.38;18.85;;;;;;;-0.81;43.79;100537.81;4953008;28;20093;-85
2022/03/13 02:34:15;;;;;;;41.33;21.23;;;;;;;-0.94;43.97;100512.91;4936645;29;20039;-84
2022/03/13 02:36:43;;;;;;;39.05;20.98;;;;;;;-0.83;44.69;100529.25;4952929;28;20035;-85
2022/03/13 02:39:10;;;;;;;40.45;20.45;;;;;;;-0.85;44.42;100536.88;4952561;28;20094;-86
2022/03/13 02:41:38;;;;;;;33.20;18.67;;;;;;;-0.98;44.82;100516.25;4936882;29;20411;-84
2022/03/13 02:44:06;;;;;;;33.10;16.63;;;;;;;-0.94;44.91;100518.88;4952724;29;20627;-80
2022/03/13 02:46:57;;;;;;;37.67;19.92;;;;;;;-0.92;45.10;100524.03;4952828;28;20031;-82
2022/03/13 02:49:25;;;;;;;36.83;19.08;;;;;;;-1.03;45.17;100517.03;4936476;29;20069;-82
2022/03/13 02:51:52;;;;;;;40.13;19.40;;;;;;;-0.99;45.17;100520.50;4966760;28;20059;-83
2022/03/13 02:54:18;;;;;;;35.90;18.23;;;;;;;-1.03;45.02;100517.03;4966227;28;20031;-82
2022/03/13 02:56:45;;;;;;;33.10;18.90;;;;;;;-1.06;45.62;100513.56;4966853;28;20023;-84
2022/03/13 02:59:12;;;;;;;35.63;18.00;;;;;;;-1.01;45.28;100532.44;4966531;28;20396;-84
2022/03/13 03:01:38;;;;;;;34.45;18.27;;;;;;;-1.13;45.24;100504.97;4966696;28;20480;-84
2022/03/13 03:04:05;;;;;;;35.13;18.63;;;;;;;-1.07;45.29;100522.94;4966474;28;20028;-83
2022/03/13 03:06:32;;;;;;;30.95;17.02;;;;;;;-1.01;45.07;100538.41;4935934;29;20101;-83
2022/03/13 03:09:01;;;;;;;28.98;17.48;;;;;;;-1.08;45.24;100517.81;4952521;29;20077;-82
2022/03/13 03:11:27;;;;;;;29.83;16.27;;;;;;;-1.02;45.71;100535.78;4967790;28;20164;-82
2022/03/13 03:13:52;;;;;;;30.88;16.17;;;;;;;-1.12;44.85;100514.38;4952420;29;20031;-84
2022/03/13 03:16:18;;;;;;;31.27;16.65;;;;;;;-1.11;45.20;100510.09;4952063;29;20076;-83
2022/03/13 03:18:44;;;;;;;34.78;17.23;;;;;;;-1.05;45.29;100520.44;4936115;29;20126;-83
2022/03/13 03:21:11;;;;;;;34.28;17.25;;;;;;;-1.15;45.31;100511.75;4935814;29;20150;-83
2022/03/13 03:23:36;;;;;;;32.90;17.02;;;;;;;-1.02;45.02;100533.25;4936039;29;20659;-83
2022/03/13 03:26:02;;;;;;;33.67;18.02;;;;;;;-1.15;45.30;100531.34;4936023;29;20082;-84
2022/03/13 03:28:27;;;;;;;31.45;17.10;;;;;;;-1.08;45.12;100534.03;4932519;29;20032;-83
2022/03/13 03:30:53;;;;;;;39.08;17.88;;;;;;;-1.18;45.12;100515.97;4916956;29;20040;-83
2022/03/13 03:33:18;;;;;;;28.45;16.05;;;;;;;-1.14;45.28;100523.69;4932498;29;20036;-84
2022/03/13 03:35:44;;;;;;;33.13;16.67;;;;;;;-1.32;45.43;100492.75;4932713;29;20038;-83
2022/03/13 03:38:11;;;;;;;33.95;17.13;;;;;;;-1.13;45.04;100524.56;4920811;29;20430;-83
2022/03/13 03:40:36;;;;;;;30.52;16.63;;;;;;;-1.13;45.24;100528.00;4916778;29;20425;-84
2022/03/13 03:43:04;;;;;;;34.00;17.40;;;;;;;-1.13;45.26;100522.03;4932523;29;20046;-83
2022/03/13 03:45:30;;;;;;;32.40;16.42;;;;;;;-1.15;45.52;100521.97;4916459;29;20062;-83
2022/03/13 03:47:56;;;;;;;32.33;16.70;;;;;;;-1.14;45.46;100517.72;4932861;29;20036;-83
2022/03/13 03:50:21;;;;;;;33.97;16.58;;;;;;;-1.12;44.87;100521.19;4916444;29;20046;-82
2022/03/13 03:52:47;;;;;;;29.48;15.82;;;;;;;-1.14;45.79;100516.03;4932406;29;20031;-83
2022/03/13 03:55:14;;;;;;;30.55;16.73;;;;;;;-1.17;45.61;100518.56;4916276;29;20040;-84
2022/03/13 03:57:39;;;;;;;30.17;17.38;;;;;;;-1.18;45.69;100509.19;4917089;29;20524;-89
2022/03/13 04:00:06;;;;;;;29.73;15.35;;;;;;;-1.16;45.96;100511.75;4929444;29;20055;-84
2022/03/13 04:02:33;;;;;;;31.98;15.73;;;;;;;-1.35;45.93;100485.03;4965389;28;20066;-84
2022/03/13 04:04:58;;;;;;;29.08;15.95;;;;;;;-1.20;46.02;100505.72;4970573;28;20573;-84
2022/03/13 04:07:24;;;;;;;32.35;16.63;;;;;;;-1.16;46.42;100512.59;4970320;28;20126;-82
2022/03/13 04:09:49;;;;;;;32.35;17.25;;;;;;;-1.18;46.00;100514.28;4954500;28;20045;-81
2022/03/13 04:12:15;;;;;;;31.92;16.48;;;;;;;-1.27;46.45;100501.34;4961156;28;20054;-81
2022/03/13 04:14:41;;;;;;;28.50;15.73;;;;;;;-1.29;46.35;100510.69;4970561;28;20167;-81
2022/03/13 04:17:07;;;;;;;30.95;15.85;;;;;;;-1.26;46.72;100503.09;4954619;28;20567;-82
2022/03/13 04:19:33;;;;;;;32.63;15.38;;;;;;;-1.37;46.64;100494.38;4970288;28;20130;-82
2022/03/13 04:21:59;;;;;;;29.27;16.67;;;;;;;-1.21;46.52;100526.16;4970680;28;20050;-81
2022/03/13 04:24:24;;;;;;;31.13;15.93;;;;;;;-1.26;47.05;100520.97;4954558;29;20071;-82
2022/03/13 04:26:50;;;;;;;29.77;16.67;;;;;;;-1.30;47.16;100514.97;4955190;29;20038;-81
2022/03/13 04:29:17;;;;;;;28.55;15.90;;;;;;;-1.27;47.26;100520.09;4955020;28;20039;-81
2022/03/13 04:31:43;;;;;;;30.17;15.60;;;;;;;-1.31;47.63;100523.47;4955036;29;20199;-82
2022/03/13 04:34:09;;;;;;;33.38;15.75;;;;;;;-1.36;47.24;100509.72;4954598;29;20128;-82
2022/03/13 04:36:37;;;;;;;32.33;16.50;;;;;;;-1.33;47.50;100520.00;4924360;29;20047;-82
2022/03/13 04:39:04;;;;;;;35.97;18.13;;;;;;;-1.32;47.91;100520.88;4935952;29;20484;-83
2022/03/13 04:41:30;;;;;;;32.67;15.55;;;;;;;-1.38;47.97;100508.88;4935580;28;20047;-83
2022/03/13 04:43:56;;;;;;;30.40;15.75;;;;;;;-1.35;47.73;100524.25;4919848;29;20039;-82
2022/03/13 04:46:21;;;;;;;36.72;16.98;;;;;;;-1.51;47.92;100495.03;4935500;28;20036;-82
2022/03/13 04:48:49;;;;;;;36.10;16.17;;;;;;;-1.35;47.72;100521.69;4935890;29;20090;-82
2022/03/13 04:51:15;;;;;;;33.08;16.35;;;;;;;-1.40;48.21;100522.44;4935411;28;20068;-82
2022/03/13 04:53:41;;;;;;;34.53;15.77;;;;;;;-1.37;48.35;100525.06;4935546;28;20035;-83
2022/03/13 04:56:07;;;;;;;28.60;15.77;;;;;;;-1.40;48.46;100518.19;4932568;29;20503;-82
2022/03/13 04:58:33;;;;;;;176.10;63.13;;;;;;;-1.39;48.58;100527.59;4937871;29;20028;-83
2022/03/13 05:00:59;;;;;;;133.23;40.22;;;;;;;-1.38;48.56;100533.56;4938232;29;20435;-83
2022/03/13 05:03:26;;;;;;;71.93;23.63;;;;;;;-1.39;48.94;100532.72;4968559;28;20028;-84
2022/03/13 05:05:53;;;;;;;47.15;19.85;;;;;;;-1.38;48.93;100534.41;4968852;28;20046;-83
2022/03/13 05:08:18;;;;;;;34.85;17.77;;;;;;;-1.58;48.67;100500.88;4937861;29;20028;-83
2022/03/13 05:10:47;;;;;;;29.60;15.20;;;;;;;-1.45;49.75;100530.03;4968884;28;20090;-82
2022/03/13 05:13:14;;;;;;;40.95;18.38;;;;;;;-1.44;49.43;100530.91;4968349;28;20059;-83
2022/03/13 05:15:46;;;;;;;33.90;16.40;;;;;;;-1.46;49.44;100528.31;4968314;28;20027;-84
2022/03/13 05:18:12;;;;;;;41.67;18.55;;;;;;;-1.49;49.81;100519.75;4968337;28;20034;-84
2022/03/13 05:20:39;;;;;;;63.92;30.33;;;;;;;-1.54;49.44;100517.97;4968331;28;20036;-83
2022/03/13 05:23:07;;;;;;;142.27;58.42;;;;;;;-1.39;49.91;100549.69;4968545;28;20035;-83
2022/03/13 05:25:32;;;;;;;102.25;34.58;;;;;;;-1.46;49.11;100533.44;4968222;28;20148;-83
2022/03/13 05:27:59;;;;;;;121.55;39.47;;;;;;;-1.46;49.61;100532.56;4937585;29;20597;-83
2022/03/13 05:30:25;;;;;;;84.00;37.58;;;;;;;-1.43;49.32;100538.59;4937143;29;20472;-84
2022/03/13 05:32:50;;;;;;;53.70;22.13;;;;;;;-1.41;49.65;100536.91;4968021;28;20031;-84
2022/03/13 05:35:16;;;;;;;57.63;24.17;;;;;;;-1.22;49.42;100555.09;4966964;28;20614;-84
2022/03/13 05:37:42;;;;;;;41.53;20.10;;;;;;;-1.18;49.75;100565.41;4967709;28;20035;-84
2022/03/13 05:40:13;;;;;;;55.13;24.13;;;;;;;-1.07;49.58;100565.56;4968013;28;20034;-84
2022/03/13 05:42:40;;;;;;;60.50;27.63;;;;;;;-1.03;49.34;100563.06;4967876;28;20031;-83
2022/03/13 05:45:06;;;;;;;65.03;29.00;;;;;;;-0.89;49.25;100568.38;4935860;29;20114;-83
2022/03/13 05:47:31;;;;;;;231.13;87.32;;;;;;;-0.80;48.85;100558.31;4967510;28;20126;-83
2022/03/13 05:50:00;;;;;;;262.05;84.35;;;;;;;-0.69;48.39;100549.91;4937061;29;20111;-83
2022/03/13 05:52:25;;;;;;;122.93;39.38;;;;;;;-0.48;48.03;100560.41;4953289;28;20046;-83
2022/03/13 05:54:51;;;;;;;54.85;22.58;;;;;;;-0.27;47.20;100550.44;4937481;29;20094;-83
2022/03/13 05:57:16;;;;;;;53.55;21.55;;;;;;;0.03;46.96;100549.06;4937611;29;20074;-84
2022/03/13 05:59:41;;;;;;;52.55;22.00;;;;;;;0.43;46.38;100539.22;4953344;29;20031;-83
2022/03/13 06:02:07;;;;;;;39.33;19.75;;;;;;;0.93;45.49;100542.16;4953504;28;20700;-83
2022/03/13 06:04:36;;;;;;;48.10;20.27;;;;;;;1.44;44.27;100534.75;4937212;29;20162;-83
2022/03/13 06:07:05;;;;;;;46.90;22.33;;;;;;;1.92;43.21;100554.63;4953556;29;20054;-83
2022/03/13 06:09:31;;;;;;;37.83;18.20;;;;;;;2.33;42.17;100558.16;4953180;28;20058;-83
2022/03/13 06:11:58;;;;;;;38.42;22.17;;;;;;;2.57;41.04;100550.47;4937133;29;20656;-83
2022/03/13 06:14:23;;;;;;;77.25;37.05;;;;;;;2.80;40.74;100542.72;4953244;28;20102;-84
2022/03/13 06:16:49;;;;;;;143.55;52.67;;;;;;;3.11;39.68;100548.69;4937269;29;20121;-83
2022/03/13 06:19:14;;;;;;;79.60;27.75;;;;;;;3.24;39.41;100534.97;4953192;28;20059;-83
2022/03/13 06:21:40;;;;;;;40.28;18.85;;;;;;;3.58;38.89;100544.25;4953027;28;20072;-84
2022/03/13 06:24:06;;;;;;;37.70;17.98;;;;;;;3.84;37.51;100542.47;4940267;29;20036;-83
2022/03/13 06:26:32;;;;;;;28.52;15.55;;;;;;;4.12;37.51;100540.56;4967173;28;20032;-85
2022/03/13 06:28:58;;;;;;;28.67;16.33;;;;;;;4.43;36.52;100545.53;4967123;28;20083;-85
2022/03/13 06:31:24;;;;;;;36.60;16.90;;;;;;;4.73;36.34;100549.59;4967127;28;20031;-84
2022/03/13 06:33:49;;;;;;;39.65;20.17;;;;;;;4.81;35.26;100539.22;4935154;28;20027;-85
2022/03/13 06:36:14;;;;;;;39.92;18.52;;;;;;;4.94;35.45;100540.81;4967089;28;20028;-85
2022/03/13 06:38:40;;;;;;;36.10;18.40;;;;;;;5.32;35.51;100568.84;4966781;28;20028;-84
2022/03/13 06:41:05;;;;;;;36.97;17.70;;;;;;;5.40;34.34;100559.28;4966990;28;20042;-83
2022/03/13 06:43:34;;;;;;;43.35;19.77;;;;;;;5.45;34.06;100554.06;4934548;29;20140;-83
2022/03/13 06:46:00;;;;;;;32.10;16.27;;;;;;;5.62;34.04;100562.47;4966618;28;20032;-83
2022/03/13 06:48:26;;;;;;;32.25;17.80;;;;;;;5.40;34.22;100569.63;4966755;28;20028;-83
2022/03/13 06:50:51;;;;;;;28.35;16.92;;;;;;;5.99;34.17;100580.16;4966669;28;20031;-84
2022/03/13 06:53:17;;;;;;;29.35;17.55;;;;;;;6.36;32.78;100574.44;4966725;28;20032;-82
2022/03/13 06:55:43;;;;;;;33.08;17.63;;;;;;;6.27;33.17;100587.53;4966376;28;20122;-82
2022/03/13 06:58:08;;;;;;;30.35;17.40;;;;;;;6.24;33.53;100570.34;4934433;29;20444;-82
2022/03/13 07:00:33;;;;;;;28.23;16.98;;;;;;;7.53;32.79;100575.94;4966568;28;20032;-83
2022/03/13 07:02:59;;;;;;;33.88;18.25;;;;;;;7.75;31.60;100575.50;4966633;28;20027;-84
2022/03/13 07:05:25;;;;;;;51.90;28.00;;;;;;;7.42;31.47;100561.47;4966370;28;20024;-84
2022/03/13 07:07:54;;;;;;;51.60;26.60;;;;;;;7.72;31.75;100559.16;4963220;28;20506;-83
2022/03/13 07:10:20;;;;;;;33.70;17.40;;;;;;;7.90;31.39;100556.16;4958000;28;20058;-82
2022/03/13 07:12:46;;;;;;;28.80;16.60;;;;;;;7.97;31.16;100565.53;4933322;29;20059;-83
2022/03/13 07:15:13;;;;;;;27.45;16.40;;;;;;;7.81;30.21;100571.06;4935565;29;20028;-83
2022/03/13 07:17:48;;;;;;;30.63;15.90;;;;;;;7.60;30.10;100561.97;4934137;29;20042;-82
2022/03/13 07:20:15;;;;;;;28.27;15.65;;;;;;;7.82;30.03;100562.41;4934251;29;20027;-83
2022/03/13 07:22:42;;;;;;;24.90;14.98;;;;;;;8.18;29.67;100566.81;4933987;28;20043;-83
2022/03/13 07:25:09;;;;;;;33.30;15.60;;;;;;;9.82;27.84;100562.66;4934028;28;20028;-84
2022/03/13 07:27:34;;;;;;;23.17;15.15;;;;;;;11.34;25.63;100569.13;4933840;28;20032;-87
2022/03/13 07:29:59;;;;;;;26.95;14.77;;;;;;;10.72;25.56;100566.88;4934117;29;20039;-81
2022/03/13 07:32:26;;;;;;;21.65;14.60;;;;;;;10.24;25.92;100565.78;4935071;29;20028;-80
2022/03/13 07:34:51;;;;;;;24.88;14.10;;;;;;;9.53;25.92;100568.69;4934124;28;20483;-80
2022/03/13 07:37:17;;;;;;;24.00;14.23;;;;;;;10.04;25.52;100567.22;4935241;29;20043;-81
2022/03/13 07:39:46;;;;;;;27.65;13.93;;;;;;;10.27;25.30;100561.34;4933550;29;20032;-79
2022/03/13 07:42:12;;;;;;;22.33;14.47;;;;;;;10.34;25.13;100562.88;4935336;29;20028;-83
2022/03/13 07:44:38;;;;;;;36.75;19.75;;;;;;;11.37;24.68;100568.13;4933697;28;20032;-83
2022/03/13 07:47:03;;;;;;;26.38;15.32;;;;;;;11.57;23.54;100557.84;4935097;29;20027;-83
2022/03/13 07:49:29;;;;;;;24.95;14.57;;;;;;;10.79;24.14;100575.31;4933617;29;20035;-82
2022/03/13 07:51:54;;;;;;;23.55;15.15;;;;;;;10.03;24.33;100573.31;4934972;29;20059;-82
2022/03/13 07:54:20;;;;;;;25.60;13.90;;;;;;;9.66;24.92;100564.84;4934750;29;20067;-83
2022/03/13 07:56:46;;;;;;;25.77;14.95;;;;;;;9.43;25.34;100572.41;4933315;28;20447;-87
2022/03/13 07:59:12;;;;;;;23.80;14.30;;;;;;;9.21;25.50;100567.78;4933444;29;20052;-79
2022/03/13 08:01:37;;;;;;;22.08;14.98;;;;;;;8.84;25.40;100564.41;4934808;29;20024;-79
2022/03/13 08:04:05;;;;;;;24.27;14.52;;;;;;;8.54;25.62;100558.22;4933656;29;20498;-80
2022/03/13 08:06:35;;;;;;;23.73;13.70;;;;;;;8.42;25.89;100561.97;4950912;28;20039;-80
2022/03/13 08:09:02;;;;;;;31.85;14.60;;;;;;;8.32;26.21;100574.28;4935364;28;20035;-80
2022/03/13 08:11:28;;;;;;;24.10;13.85;;;;;;;8.27;26.45;100580.47;4951290;28;20046;-81
2022/03/13 08:13:53;;;;;;;22.95;14.15;;;;;;;8.22;26.85;100573.63;4951228;29;20047;-81
2022/03/13 08:16:19;;;;;;;21.63;14.30;;;;;;;8.08;26.54;100580.00;4951495;28;20151;-81
2022/03/13 08:18:44;;;;;;;24.33;14.77;;;;;;;7.86;26.81;100577.84;4951207;29;20387;-80
2022/03/13 08:21:10;;;;;;;23.70;13.10;;;;;;;7.80;27.16;100570.22;4951303;29;20265;-81
2022/03/13 08:23:35;;;;;;;20.50;13.25;;;;;;;7.58;27.18;100561.13;4951130;28;20039;-81
2022/03/13 08:26:01;;;;;;;23.13;13.77;;;;;;;7.59;27.31;100568.91;4951232;29;20039;-81
2022/03/13 08:28:26;;;;;;;24.77;14.15;;;;;;;7.44;27.42;100551.91;4935309;29;20031;-80
2022/03/13 08:30:52;;;;;;;21.70;12.93;;;;;;;7.40;27.46;100559.75;4951226;29;20706;-80
2022/03/13 08:33:17;;;;;;;21.27;14.00;;;;;;;7.52;27.84;100559.53;4951279;29;20043;-81
2022/03/13 08:35:43;;;;;;;18.40;12.45;;;;;;;7.55;27.37;100561.22;4951142;29;20038;-81
2022/03/13 08:38:08;;;;;;;20.40;12.65;;;;;;;7.30;27.51;100558.25;4932871;29;20483;-81
2022/03/13 08:40:34;;;;;;;19.77;12.00;;;;;;;7.28;27.20;100570.34;4934260;29;20024;-81
2022/03/13 08:42:59;;;;;;;26.58;13.63;;;;;;;7.02;26.83;100537.16;4933372;29;20059;-81
2022/03/13 08:45:25;;;;;;;23.27;13.15;;;;;;;6.99;27.12;100545.81;4933370;29;20110;-81
2022/03/13 08:47:50;;;;;;;23.55;13.43;;;;;;;7.09;27.73;100565.53;4933120;29;20130;-80
2022/03/13 08:50:16;;;;;;;21.88;12.65;;;;;;;7.06;27.69;100559.53;4934561;29;20051;-80
2022/03/13 08:52:42;;;;;;;20.42;11.70;;;;;;;6.98;27.35;100551.88;4934120;29;20460;-80
2022/03/13 08:55:13;;;;;;;21.27;12.73;;;;;;;7.02;27.37;100550.09;4933118;29;20091;-78
2022/03/13 08:57:43;;;;;;;18.90;11.63;;;;;;;7.07;27.22;100571.59;4933576;28;20032;-91
2022/03/13 09:00:14;;;;;;;19.63;11.52;;;;;;;7.10;26.96;100556.00;4898350;29;20409;-88
2022/03/13 09:02:40;;;;;;;19.83;12.07;;;;;;;7.20;27.22;100555.78;4897213;29;20044;-90
2022/03/13 09:05:06;;;;;;;18.63;11.80;;;;;;;7.26;26.99;100552.25;4897620;29;20051;-90
2022/03/13 09:07:32;;;;;;;20.25;11.85;;;;;;;7.28;26.41;100553.06;4898138;29;20115;-90
2022/03/13 09:09:57;;;;;;;20.02;11.70;;;;;;;7.29;27.07;100559.09;4900813;29;20048;-90
2022/03/13 09:12:23;;;;;;;27.92;14.40;;;;;;;7.36;26.16;100560.72;4901839;29;20139;-91
2022/03/13 09:14:48;;;;;;;17.40;11.45;;;;;;;7.14;26.67;100536.94;4900581;29;20043;-82
2022/03/13 09:17:15;;;;;;;18.50;10.73;;;;;;;7.26;26.66;100549.66;4900329;29;20502;-83
2022/03/13 09:19:41;;;;;;;20.40;10.82;;;;;;;7.37;26.63;100545.13;4899999;29;20126;-82
2022/03/13 09:22:07;;;;;;;20.17;11.63;;;;;;;7.43;26.23;100546.75;4915918;29;20119;-82
2022/03/13 09:24:33;;;;;;;17.20;11.38;;;;;;;7.43;26.57;100541.56;4899005;29;20032;-83
2022/03/13 09:26:58;;;;;;;25.27;12.15;;;;;;;7.60;25.83;100554.19;4900202;29;20088;-83
2022/03/13 09:29:24;;;;;;;24.02;11.85;;;;;;;7.61;25.27;100545.53;4915962;29;20032;-83
2022/03/13 09:31:50;;;;;;;20.55;10.63;;;;;;;7.63;25.60;100552.41;4932698;29;20050;-85
2022/03/13 09:34:16;;;;;;;17.48;12.32;;;;;;;7.61;24.78;100555.91;4936060;29;20024;-80
2022/03/13 09:36:43;;;;;;;21.17;12.57;;;;;;;7.63;24.85;100557.59;4937130;29;20091;-85
2022/03/13 09:39:09;;;;;;;23.00;11.48;;;;;;;7.63;25.08;100551.56;4937477;29;20035;-85
2022/03/13 09:41:38;;;;;;;19.65;11.35;;;;;;;7.63;24.85;100554.16;4935811;28;20114;-85
2022/03/13 09:44:05;;;;;;;17.40;10.52;;;;;;;7.68;24.86;100560.94;4935989;28;20087;-85
2022/03/13 09:46:31;;;;;;;16.35;10.73;;;;;;;7.72;24.99;100541.84;4935868;28;20038;-85
2022/03/13 09:48:57;;;;;;;26.08;13.18;;;;;;;7.80;25.07;100559.00;4935496;28;20024;-85
2022/03/13 09:51:23;;;;;;;15.82;10.85;;;;;;;7.88;24.41;100551.88;4935750;28;20027;-85
2022/03/13 09:53:49;;;;;;;15.43;9.73;;;;;;;7.82;24.11;100528.69;4972580;28;20041;-85
2022/03/13 09:56:15;;;;;;;14.50;10.05;;;;;;;7.93;24.71;100550.91;4972764;28;20129;-86
2022/03/13 09:58:42;;;;;;;20.85;13.32;;;;;;;7.99;24.43;100555.97;4956440;28;20130;-86
2022/03/13 10:01:08;;;;;;;19.85;12.25;;;;;;;8.08;24.08;100573.06;4973129;28;20457;-89
2022/03/13 10:03:34;;;;;;;17.00;11.23;;;;;;;8.08;24.09;100559.25;4972764;28;20129;-86
2022/03/13 10:06:00;;;;;;;20.42;12.95;;;;;;;8.04;23.80;100547.22;4972926;28;20065;-86
2022/03/13 10:08:30;;;;;;;17.58;10.95;;;;;;;8.13;23.68;100579.03;4956716;28;20066;-85
2022/03/13 10:10:57;;;;;;;16.90;11.38;;;;;;;8.09;23.67;100560.94;4956429;28;20114;-85
2022/03/13 10:13:36;;;;;;;18.70;12.68;;;;;;;8.11;23.45;100575.59;4972470;28;20038;-86
2022/03/13 10:16:01;;;;;;;21.70;11.50;;;;;;;8.02;23.64;100544.66;4956463;28;20027;-85
2022/03/13 10:18:27;;;;;;;18.13;11.90;;;;;;;8.16;24.02;100562.53;4957893;28;20035;-89
2022/03/13 10:20:56;;;;;;;18.23;11.85;;;;;;;8.26;24.00;100548.47;4973319;28;20613;-89
2022/03/13 10:23:23;;;;;;;33.95;16.02;;;;;;;8.33;24.09;100559.56;4958122;28;20130;-88
2022/03/13 10:25:50;;;;;;;21.55;12.43;;;;;;;8.37;23.76;100554.28;4936581;29;20070;-88
2022/03/13 10:28:25;;;;;;;18.80;12.70;;;;;;;8.38;23.57;100542.16;4973156;28;20034;-85
2022/03/13 10:30:59;;;;;;;22.58;13.18;;;;;;;8.45;23.65;100554.09;4955934;28;20133;-88
2022/03/13 10:33:46;;;;;;;21.63;11.90;;;;;;;8.45;23.41;100544.56;4958095;28;20035;-92
2022/03/13 10:36:19;;;;;;;18.05;12.18;;;;;;;8.44;23.52;100552.41;4939158;29;20109;-87
2022/03/13 10:38:59;;;;;;;20.33;12.10;;;;;;;8.47;23.50;100558.38;4953980;28;20039;-91
2022/03/13 10:41:44;;;;;;;21.25;11.55;;;;;;;8.39;23.30;100539.53;4934425;29;20036;-85
2022/03/13 10:44:14;;;;;;;18.90;12.35;;;;;;;8.48;23.62;100543.66;4917899;29;20042;-89
2022/03/13 10:46:42;;;;;;;18.35;12.50;;;;;;;8.61;22.95;100552.84;4918131;29;20054;-88
2022/03/13 10:49:28;;;;;;;18.23;11.75;;;;;;;8.65;22.95;100545.84;4920323;29;20507;-91
2022/03/13 10:52:25;;;;;;;18.92;11.23;;;;;;;8.73;23.32;100536.13;4825965;29;20674;-92
2022/03/13 10:54:53;;;;;;;21.00;12.15;;;;;;;8.75;22.90;100540.38;4825221;29;20199;-87
2022/03/13 10:57:19;;;;;;;16.75;12.10;;;;;;;8.79;23.24;100535.97;4824857;29;20057;-93
2022/03/13 10:59:45;;;;;;;16.80;10.63;;;;;;;8.85;22.94;100535.81;4823325;29;20103;-91
2022/03/13 11:02:16;;;;;;;21.60;12.90;;;;;;;8.92;22.78;100541.69;4823645;29;20042;-93
2022/03/13 11:04:45;;;;;;;;;;;;;;;8.89;22.99;100540.06;4809725;29;20042;-92
2022/03/13 11:07:59;;;;;;;21.00;12.05;;;;;;;8.90;22.98;100525.31;4808915;29;19951;-93
2022/03/13 11:10:45;;;;;;;18.73;11.07;;;;;;;8.96;23.42;100528.59;4805058;29;20123;-91
2022/03/13 11:13:15;;;;;;;19.70;11.73;;;;;;;8.97;23.51;100514.72;4799499;29;20047;-90
2022/03/13 11:15:44;;;;;;;19.02;12.52;;;;;;;9.00;23.90;100513.78;4787073;29;20416;-94